Pagrindinis puslapis
METAR-TAF:

METAR-TAF

Oro uostai :

Scammon Bay, Aliaska, Jungtinės Amerikos Valstijos

platuma: 61-50-43N, ilguma: 165-34-17W, Aukštis: 4 m

Dabartinis oras

Ataskaita buvo paskelbta 31 minutes, ne 23:22 UTC
Vėjas 16 kt iš Šiaurės Vakarų
Temperatūra -12°C
Drėgmė 72%
Slėgis 1019 hPa
Matomumas: 14.5 km
Išsisklaidę debesys ne aukštis 2200 ft

METAR: PACM 282322Z AUTO 32016KT 9SM SCT022 M12/M16 A3010 RMK AO2 FZRANO

Laikas: 15:53 (23:53 UTC)


TAF: trūkstamas

Orai ataskaitas ir orų prognozės (METAR, TAF).

turimą stotys yra geltonos ir raudonos taškus žemėlapyje.

Perkelti pele per norėdami pamatyti stoties vardą.

Tada spustelėkite, norėdami matyti oro stebėjimo ir prognozės.

Norėdami pakeisti žemėlapį: spustelėkite ant žalios mygtukų su juodo kryžiaus žemyn,; žalią mygtuką su brūkšneliu, jei norite nutolinti; arba žalių rodyklių gretimoms žemėlapius.


METAR-TAF: